createdAt,value
2022-10-20T00:02:57.024Z,56.13
2022-10-20T00:07:49.625Z,56.13
2022-10-20T00:12:42.302Z,56.06
2022-10-20T00:17:36.825Z,56.04
2022-10-20T00:22:29.196Z,56.04
2022-10-20T00:32:09.377Z,56.05
2022-10-20T00:37:03.238Z,56.04
2022-10-20T00:41:55.530Z,55.92
2022-10-20T00:46:47.866Z,55.96
2022-10-20T00:51:34.484Z,56.01
2022-10-20T00:56:28.001Z,56
2022-10-20T01:06:11.443Z,56
2022-10-20T01:11:04.350Z,55.98
2022-10-20T01:15:56.500Z,55.92
2022-10-20T01:20:48.777Z,55.93
2022-10-20T01:25:43.284Z,55.87
2022-10-20T01:30:35.620Z,55.92
2022-10-20T01:35:28.313Z,55.91
2022-10-20T01:40:20.969Z,55.85
2022-10-20T01:45:15.524Z,55.91
2022-10-20T01:50:07.599Z,55.81
2022-10-20T01:55:02.345Z,55.8
2022-10-20T01:59:54.196Z,55.8
2022-10-20T02:04:46.652Z,55.83
2022-10-20T02:09:40.795Z,55.87
2022-10-20T02:14:27.324Z,55.79
2022-10-20T02:19:20.400Z,55.84
2022-10-20T02:24:16.298Z,55.79
2022-10-20T02:29:08.436Z,55.75
2022-10-20T02:34:01.220Z,55.72
2022-10-20T02:38:53.742Z,55.74
2022-10-20T02:43:46.388Z,55.78
2022-10-20T02:48:38.863Z,55.55
2022-10-20T02:53:31.346Z,55.67
2022-10-20T02:58:23.904Z,55.56
2022-10-20T03:03:16.906Z,55.48
2022-10-20T03:08:09.426Z,55.52
2022-10-20T03:13:01.908Z,55.64
2022-10-20T03:22:42.133Z,55.53
2022-10-20T03:27:35.871Z,55.62
2022-10-20T03:32:28.202Z,55.66
2022-10-20T03:37:22.810Z,55.59
2022-10-20T03:42:14.857Z,55.63
2022-10-20T03:51:54.933Z,55.66
2022-10-20T03:56:48.563Z,55.7
2022-10-20T04:01:43.263Z,55.69
2022-10-20T04:06:35.462Z,55.55
2022-10-20T04:11:28.183Z,55.53
2022-10-20T04:16:22.633Z,56.33
2022-10-20T04:21:15.180Z,56.12
2022-10-20T04:26:07.596Z,56.35
2022-10-20T04:31:00.052Z,55.75
2022-10-20T04:35:52.610Z,55.68
2022-10-20T04:40:45.056Z,55.36
2022-10-20T04:45:37.719Z,55.28
2022-10-20T04:50:30.297Z,55.13
2022-10-20T04:55:22.823Z,55.02
2022-10-20T05:00:15.377Z,54.38
2022-10-20T05:05:07.915Z,54.39
2022-10-20T05:14:53.196Z,55.21
2022-10-20T05:24:37.842Z,55.2
2022-10-20T05:34:22.686Z,54.71
2022-10-20T05:39:15.398Z,53.79
2022-10-20T05:44:07.704Z,53.82
2022-10-20T05:48:59.671Z,53.58
2022-10-20T05:53:52.008Z,53.62
2022-10-20T05:58:44.316Z,53.3
2022-10-20T06:03:36.574Z,53.2
2022-10-20T06:08:29.252Z,53.1
2022-10-20T06:13:21.773Z,53.23
2022-10-20T06:18:14.578Z,53.33
2022-10-20T06:23:06.955Z,53.32
2022-10-20T06:27:59.422Z,53.42
2022-10-20T06:32:51.896Z,53.49
2022-10-20T06:37:44.488Z,53.63
2022-10-20T06:42:37.490Z,53.75
2022-10-20T06:47:29.513Z,53.58
2022-10-20T06:52:22.140Z,53.83
2022-10-20T06:57:14.724Z,53.64
2022-10-20T07:02:07.353Z,53.84
2022-10-20T07:06:59.858Z,53.64
2022-10-20T07:11:52.239Z,53.1
2022-10-20T07:16:44.825Z,53.11
2022-10-20T07:21:38.292Z,53.18
2022-10-20T07:26:29.787Z,53.37
2022-10-20T07:31:22.384Z,53.33
2022-10-20T07:36:14.991Z,53.4
2022-10-20T07:41:07.590Z,53.42
2022-10-20T07:46:00.648Z,53.39
2022-10-20T07:50:53.464Z,53.36
2022-10-20T07:55:45.958Z,53.38
2022-10-20T08:05:30.914Z,53.42
2022-10-20T08:10:23.414Z,53.43
2022-10-20T08:15:15.933Z,53.48
2022-10-20T08:20:08.831Z,53.48
2022-10-20T08:25:01.239Z,53.47
2022-10-20T08:29:59.855Z,53.5
2022-10-20T08:34:46.188Z,53.39
2022-10-20T08:39:38.851Z,53.32
2022-10-20T08:44:31.520Z,53.34
2022-10-20T08:49:24.313Z,53.41
2022-10-20T08:54:16.621Z,53.37
2022-10-20T08:59:09.144Z,53.34
2022-10-20T09:04:01.641Z,53.35
2022-10-20T09:08:54.378Z,53.38
2022-10-20T09:18:39.368Z,53.54
2022-10-20T09:23:47.418Z,53.51
2022-10-20T09:28:24.645Z,53.39
2022-10-20T09:33:17.202Z,53.23
2022-10-20T09:38:09.824Z,52.82
2022-10-20T09:43:02.220Z,52.85
2022-10-20T09:47:54.653Z,50.84
2022-10-20T09:52:48.030Z,50.78
2022-10-20T09:57:40.034Z,51.45
2022-10-20T10:02:32.347Z,51.43
2022-10-20T10:07:24.772Z,51.61
2022-10-20T10:12:17.352Z,51.5
2022-10-20T10:17:09.862Z,51.63
2022-10-20T10:22:02.256Z,51.6
2022-10-20T10:26:54.700Z,51.69
2022-10-20T10:31:46.991Z,51.87
2022-10-20T10:36:39.444Z,52.01
2022-10-20T10:41:31.989Z,52.06
2022-10-20T10:46:24.195Z,52.25
2022-10-20T10:51:16.516Z,52.29
2022-10-20T11:01:01.693Z,52.13
2022-10-20T11:05:54.382Z,52.07
2022-10-20T11:15:34.524Z,52.3
2022-10-20T11:20:28.244Z,52.38
2022-10-20T11:25:20.749Z,52.49
2022-10-20T11:30:15.196Z,52.63
2022-10-20T11:35:07.490Z,52.6
2022-10-20T11:40:03.043Z,52.66
2022-10-20T11:44:52.502Z,52.76
2022-10-20T11:49:44.982Z,52.62
2022-10-20T11:54:37.590Z,52.54
2022-10-20T11:59:30.177Z,52.78
2022-10-20T12:04:22.852Z,52.91
2022-10-20T12:09:15.574Z,52.94
2022-10-20T12:14:08.077Z,52.9
2022-10-20T12:23:53.083Z,52.82
2022-10-20T12:28:45.566Z,53.03
2022-10-20T12:33:38.106Z,52.78
2022-10-20T12:38:30.608Z,52.91
2022-10-20T12:48:15.480Z,52.77
2022-10-20T12:58:00.368Z,52.87
2022-10-20T13:07:40.793Z,52.84
2022-10-20T13:12:34.128Z,52.69
2022-10-20T13:17:26.664Z,52.68
2022-10-20T13:22:19.364Z,52.92
2022-10-20T13:27:11.866Z,52.93
2022-10-20T13:32:04.441Z,53.01
2022-10-20T13:36:56.878Z,52.83
2022-10-20T13:41:49.189Z,52.93
2022-10-20T13:46:41.857Z,53.06
2022-10-20T13:51:34.393Z,53.17
2022-10-20T13:56:26.973Z,53.16
2022-10-20T14:01:19.349Z,53.13
2022-10-20T14:06:11.694Z,53.02
2022-10-20T14:11:04.374Z,53.13
2022-10-20T14:15:56.992Z,53.09
2022-10-20T14:20:49.377Z,53.23
2022-10-20T14:25:41.893Z,53.16
2022-10-20T14:30:36.301Z,53.13
2022-10-20T14:35:26.832Z,52.64
2022-10-20T14:40:19.416Z,50.31
2022-10-20T14:45:12.080Z,50.21
2022-10-20T14:50:04.712Z,50.94
2022-10-20T14:54:57.289Z,51.66
2022-10-20T14:59:49.666Z,51.91
2022-10-20T15:09:30.012Z,52.02
2022-10-20T15:14:25.632Z,52.08
2022-10-20T15:19:17.929Z,52.3
2022-10-20T15:24:12.690Z,52.37
2022-10-20T15:29:04.523Z,52.47
2022-10-20T15:33:57.672Z,52.55
2022-10-20T15:38:52.211Z,52.54
2022-10-20T15:43:43.839Z,52.66
2022-10-20T15:48:36.390Z,52.58
2022-10-20T15:53:28.718Z,52.65
2022-10-20T15:58:23.419Z,52.69
2022-10-20T16:03:17.630Z,52.85
2022-10-20T16:12:57.937Z,53.01
2022-10-20T16:17:51.868Z,53.3
2022-10-20T16:27:34.047Z,53.71
2022-10-20T16:32:29.154Z,53.85
2022-10-20T16:37:19.332Z,53.83
2022-10-20T16:42:12.243Z,53.86
2022-10-20T16:47:06.738Z,53.93
2022-10-20T16:51:58.872Z,53.89
2022-10-20T16:56:53.597Z,53.97
2022-10-20T17:01:45.808Z,54.1
2022-10-20T17:11:26.065Z,54.1
2022-10-20T17:16:20.036Z,54.09
2022-10-20T17:21:06.662Z,54.2
2022-10-20T17:26:01.952Z,54.26
2022-10-20T17:30:54.952Z,54.24
2022-10-20T17:35:47.811Z,54.25
2022-10-20T17:40:34.769Z,54.32
2022-10-20T17:45:28.367Z,54.21
2022-10-20T17:50:23.881Z,54.27
2022-10-20T17:55:16.321Z,54.23
2022-10-20T18:05:04.772Z,54.29
2022-10-20T18:14:49.624Z,54.38
2022-10-20T18:19:41.956Z,54.39
2022-10-20T18:24:34.521Z,54.5
2022-10-20T18:29:28.845Z,54.41
2022-10-20T18:34:21.248Z,54.44
2022-10-20T18:39:13.912Z,54.45
2022-10-20T18:48:54.070Z,54.53
2022-10-20T18:53:47.808Z,54.52
2022-10-20T18:58:42.663Z,54.52
2022-10-20T19:03:37.073Z,54.56
2022-10-20T19:08:29.351Z,54.47
2022-10-20T19:13:21.704Z,54.47
2022-10-20T19:23:03.217Z,54.34
2022-10-20T19:27:56.070Z,54.24
2022-10-20T19:32:48.583Z,54.22
2022-10-20T19:37:40.819Z,54.17
2022-10-20T19:42:35.934Z,54.18
2022-10-20T19:52:15.609Z,54.1
2022-10-20T19:57:09.004Z,54.11
2022-10-20T20:02:01.849Z,54.11
2022-10-20T20:06:57.295Z,54.03
2022-10-20T20:11:47.987Z,54.03
2022-10-20T20:16:42.414Z,54.01
2022-10-20T20:21:34.907Z,53.81
2022-10-20T20:26:29.715Z,53.9
2022-10-20T20:31:21.899Z,53.86
2022-10-20T20:36:16.638Z,53.89
2022-10-20T20:41:08.935Z,53.86
2022-10-20T20:45:55.566Z,53.87
2022-10-20T20:50:51.072Z,53.87
2022-10-20T20:55:43.750Z,53.92
2022-10-20T21:00:36.395Z,53.89
2022-10-20T21:05:28.763Z,53.93
2022-10-20T21:10:21.580Z,53.94
2022-10-20T21:15:14.332Z,53.94
2022-10-20T21:20:06.621Z,53.94
2022-10-20T21:24:58.984Z,53.94
2022-10-20T21:29:51.736Z,53.95
2022-10-20T21:34:44.362Z,53.91
2022-10-20T21:44:25.313Z,53.92
2022-10-20T21:49:17.681Z,53.93
2022-10-20T21:54:05.542Z,53.92
2022-10-20T21:59:00.793Z,53.97
2022-10-20T22:03:53.913Z,54.04
2022-10-20T22:08:46.811Z,54
2022-10-20T22:13:33.627Z,54.02
2022-10-20T22:18:29.279Z,54.06
2022-10-20T22:23:16.421Z,54.05
2022-10-20T22:28:10.039Z,54.04
2022-10-20T22:33:03.839Z,54.01
2022-10-20T22:37:58.943Z,54.04
2022-10-20T22:42:50.963Z,54.04
2022-10-20T22:47:37.991Z,54.1
2022-10-20T22:52:33.378Z,54.1
2022-10-20T22:57:20.530Z,54.13
2022-10-20T23:02:14.519Z,54.11
2022-10-20T23:07:10.938Z,54.13
2022-10-20T23:12:05.488Z,54.14
2022-10-20T23:16:57.999Z,54.06
2022-10-20T23:21:52.858Z,54.1
2022-10-20T23:26:45.369Z,54.08
2022-10-20T23:31:39.671Z,54.15
2022-10-20T23:36:33.231Z,54.09
2022-10-20T23:41:26.484Z,54.14
2022-10-20T23:51:05.478Z,54.13
